Port-au-Prince, Haiti
Current Conditions -  °F | °C
As of 11:00 PM on Sunday 21 Dec 2014 (Local Time) from MDST Reporting Station
Scattered Clouds Scattered Clouds  
Wind Chill: 70°   Ceiling: Unl
Heat Index: 70°   Visibility: 6mi
Dew Point: 70°   Wind: 5mph
Humidity: 100%   Direction: 90°E
Pressure: 30.09"   Gusts: NA
Location:  18.54°N, 72.34°W
Report Text: MDST 220400Z 09004KT 9999 SCT014 21/21 Q1019
Loading
Personal Weather Stations






























Interactive Weather Map New forecast layout! Learn more

10-Day Weather Forecast

Advertisements
Track Severe Weather on mobile